Time;durP1;ratioP1;P1;durP2;ratioP2;P2;SDS_P1;SDS_P2;PMS_P1;PMS_P2;Temp;Humidity;BMP_temperature;BMP_pressure;BME280_temperature;BME280_humidity;BME280_pressure;Samples;Min_cycle;Max_cycle;Signal;HPM_P1;HPM_P2
2020/12/25 03:47:01;;;;;;;2.35;2.17;;;5.20;91.40;;;;;;5550801;23;94521;-80
2020/12/25 03:49:27;;;;;;;2.15;2.05;;;5.10;91.70;;;;;;4915130;28;92271;-80
2020/12/25 03:51:52;;;;;;;2.33;2.17;;;5.10;91.70;;;;;;4926089;28;92026;-78
2020/12/25 03:54:18;;;;;;;1.70;1.70;;;5.00;92.20;;;;;;4928120;28;91973;-79
2020/12/25 03:56:44;;;;;;;1.70;1.70;;;5.00;91.80;;;;;;4925138;28;91213;-79
2020/12/25 03:59:09;;;;;;;2.00;1.90;;;5.00;91.70;;;;;;4920267;28;92581;-80
2020/12/25 04:01:36;;;;;;;1.60;1.60;;;5.00;91.70;;;;;;4922608;28;92059;-79
2020/12/25 04:04:01;;;;;;;1.67;1.67;;;4.90;92.10;;;;;;4924304;28;92856;-80
2020/12/25 04:06:27;;;;;;;1.88;1.88;;;4.90;92.80;;;;;;4924288;28;91927;-80
2020/12/25 04:08:53;;;;;;;1.60;1.50;;;4.90;92.70;;;;;;4924331;28;92586;-80
2020/12/25 04:11:19;;;;;;;1.73;1.73;;;5.00;92.30;;;;;;4923902;28;92301;-79
2020/12/25 04:13:44;;;;;;;1.88;1.88;;;4.90;92.50;;;;;;4924661;28;91925;-78
2020/12/25 04:16:10;;;;;;;1.95;1.95;;;4.90;93.20;;;;;;4924325;28;92196;-78
2020/12/25 04:18:35;;;;;;;2.15;2.10;;;4.80;93.30;;;;;;4923544;28;91955;-79
2020/12/25 04:21:01;;;;;;;0.75;0.75;;;4.80;93.20;;;;;;4923687;28;91239;-79
2020/12/25 04:23:30;;;;;;;2.13;2.03;;;4.80;93.40;;;;;;4924417;28;92205;-79
2020/12/25 04:25:56;;;;;;;2.17;2.08;;;4.80;93.70;;;;;;4926360;28;91871;-79
2020/12/25 04:28:22;;;;;;;1.88;1.88;;;4.80;94.00;;;;;;4923429;28;93358;-80
2020/12/25 04:30:47;;;;;;;1.75;1.70;;;4.90;93.80;;;;;;4921942;28;93381;-78
2020/12/25 04:33:13;;;;;;;1.92;1.92;;;4.90;94.00;;;;;;4925420;28;91980;-81
2020/12/25 04:35:39;;;;;;;0.95;0.95;;;4.90;93.50;;;;;;4925945;28;91899;-79
2020/12/25 04:38:04;;;;;;;1.83;1.80;;;4.80;94.10;;;;;;4925687;28;91776;-80
2020/12/25 04:40:31;;;;;;;1.85;1.75;;;4.80;93.70;;;;;;4925757;28;92259;-80
2020/12/25 04:42:58;;;;;;;2.00;1.90;;;4.80;93.40;;;;;;4925009;28;91361;-79
2020/12/25 04:45:24;;;;;;;2.10;2.00;;;4.80;93.80;;;;;;4921713;28;91243;-79
2020/12/25 04:47:52;;;;;;;1.52;1.52;;;4.80;93.40;;;;;;4908893;28;92024;-79
2020/12/25 04:50:18;;;;;;;1.63;1.63;;;4.80;93.60;;;;;;4902587;28;91908;-80
2020/12/25 04:52:48;;;;;;;1.83;1.73;;;4.80;93.40;;;;;;4902735;28;92069;-79
2020/12/25 04:55:14;;;;;;;1.80;1.80;;;4.90;92.90;;;;;;4902840;28;91523;-79
2020/12/25 04:57:40;;;;;;;1.98;1.88;;;4.90;92.30;;;;;;4903832;28;92272;-80
2020/12/25 05:00:16;;;;;;;0.80;0.80;;;4.80;92.40;;;;;;4903871;28;92028;-78
2020/12/25 05:02:42;;;;;;;2.38;2.28;;;4.80;92.20;;;;;;4878488;28;91964;-79
2020/12/25 05:05:09;;;;;;;2.15;2.05;;;4.80;91.90;;;;;;4895377;28;92153;-79
2020/12/25 05:07:36;;;;;;;1.77;1.77;;;4.80;92.60;;;;;;4902719;28;92874;-79
2020/12/25 05:10:06;;;;;;;2.10;2.00;;;4.70;91.90;;;;;;4898178;28;91294;-80
2020/12/25 05:12:33;;;;;;;1.87;1.87;;;4.70;92.00;;;;;;4889888;28;91962;-80
2020/12/25 05:15:03;;;;;;;2.05;1.95;;;4.70;92.40;;;;;;4897106;28;91928;-79
2020/12/25 05:17:31;;;;;;;1.73;1.70;;;4.80;92.10;;;;;;4895955;28;94030;-80
2020/12/25 05:19:57;;;;;;;2.05;1.90;;;4.80;92.00;;;;;;4903853;28;92218;-79
2020/12/25 05:22:23;;;;;;;1.48;1.48;;;4.80;92.00;;;;;;4897109;28;91838;-80
2020/12/25 05:24:48;;;;;;;1.88;1.88;;;4.80;91.30;;;;;;4894818;28;92065;-80
2020/12/25 05:27:14;;;;;;;2.08;1.98;;;4.70;91.90;;;;;;4887664;28;92342;-80
2020/12/25 05:29:41;;;;;;;2.33;2.22;;;4.80;92.10;;;;;;4900316;28;91942;-79
2020/12/25 05:32:07;;;;;;;1.83;1.80;;;4.80;91.50;;;;;;4887671;28;92573;-80
2020/12/25 05:34:34;;;;;;;1.92;1.85;;;4.80;91.80;;;;;;4904539;28;91129;-80
2020/12/25 05:37:02;;;;;;;1.90;1.90;;;4.80;92.20;;;;;;4907158;28;92637;-80
2020/12/25 05:39:35;;;;;;;2.47;2.38;;;4.90;91.80;;;;;;4906655;28;93044;-80
2020/12/25 05:42:08;;;;;;;2.10;2.00;;;4.80;91.70;;;;;;4895022;28;93407;-78
2020/12/25 05:44:44;;;;;;;1.85;1.77;;;4.80;91.90;;;;;;4899712;28;91883;-79
2020/12/25 05:47:16;;;;;;;0.70;0.60;;;4.80;91.90;;;;;;4870792;28;751196;-80
2020/12/25 05:49:42;;;;;;;1.73;1.65;;;4.70;92.40;;;;;;4918930;28;92000;-78
2020/12/25 05:52:09;;;;;;;1.98;1.88;;;4.70;92.70;;;;;;4922277;28;91880;-80
2020/12/25 05:54:36;;;;;;;2.13;2.03;;;4.60;92.80;;;;;;4926578;28;91862;-80
2020/12/25 05:57:05;;;;;;;2.10;2.00;;;4.60;93.70;;;;;;4926582;28;93346;-79
2020/12/25 05:59:32;;;;;;;1.98;1.88;;;4.60;93.50;;;;;;4919086;28;91442;-79
2020/12/25 06:02:03;;;;;;;2.00;1.90;;;4.60;93.90;;;;;;4907732;28;91479;-80
2020/12/25 06:04:31;;;;;;;2.30;2.20;;;4.50;93.90;;;;;;4916467;28;91480;-80
2020/12/25 06:06:57;;;;;;;1.92;1.83;;;4.50;94.50;;;;;;4922317;28;92888;-80
2020/12/25 06:09:34;;;;;;;2.85;2.40;;;4.50;95.10;;;;;;4917527;28;92292;-80
2020/12/25 06:12:00;;;;;;;2.40;2.20;;;4.50;94.80;;;;;;4925938;28;91779;-78
2020/12/25 06:14:26;;;;;;;1.48;1.38;;;4.50;94.50;;;;;;4911273;28;92252;-80
2020/12/25 06:17:09;;;;;;;2.45;2.35;;;4.50;94.90;;;;;;4923894;28;91990;-79
2020/12/25 06:19:57;;;;;;;2.55;2.38;;;4.50;96.00;;;;;;4925107;28;92296;-79
2020/12/25 06:22:28;;;;;;;1.55;0.95;;;4.40;96.40;;;;;;4906882;28;91980;-78
2020/12/25 06:24:57;;;;;;;2.10;2.00;;;4.40;96.50;;;;;;4923467;28;91264;-79
2020/12/25 06:27:27;;;;;;;2.20;2.10;;;4.30;97.70;;;;;;4914832;28;93354;-80
2020/12/25 06:29:56;;;;;;;2.17;2.05;;;4.20;98.60;;;;;;4917979;28;92154;-79
2020/12/25 06:32:26;;;;;;;2.47;2.25;;;4.20;98.70;;;;;;4915891;28;92946;-79
2020/12/25 06:34:55;;;;;;;1.95;1.85;;;4.20;99.90;;;;;;4924945;28;91945;-79
2020/12/25 06:37:29;;;;;;;2.67;2.47;;;4.00;99.90;;;;;;4924616;28;92090;-79
2020/12/25 06:40:06;;;;;;;2.20;2.00;;;4.00;99.90;;;;;;4924259;28;92709;-79
2020/12/25 06:42:36;;;;;;;2.38;2.28;;;4.10;99.90;;;;;;4910957;28;93434;-79
2020/12/25 06:45:11;;;;;;;2.25;2.15;;;4.20;99.90;;;;;;4925058;28;92057;-79
2020/12/25 06:47:39;;;;;;;17.73;2.80;;;4.30;99.90;;;;;;4925043;28;92446;-79
2020/12/25 06:50:13;;;;;;;2.47;2.03;;;4.30;99.90;;;;;;4915910;28;91178;-79
2020/12/25 06:52:52;;;;;;;2.40;2.20;;;4.30;99.90;;;;;;4920164;28;92035;-79
2020/12/25 06:55:20;;;;;;;2.45;2.35;;;4.30;99.90;;;;;;4919050;28;91902;-80
2020/12/25 06:57:46;;;;;;;3.00;2.80;;;4.20;99.90;;;;;;4914955;28;93193;-79
2020/12/25 07:00:12;;;;;;;2.13;2.00;;;4.00;99.90;;;;;;4925122;28;92820;-79
2020/12/25 07:02:43;;;;;;;2.47;2.35;;;4.00;99.90;;;;;;4918835;28;91897;-79
2020/12/25 07:05:09;;;;;;;2.53;2.42;;;3.90;99.90;;;;;;4906513;28;91714;-79
2020/12/25 07:07:34;;;;;;;2.40;2.30;;;3.90;99.90;;;;;;4908993;28;92760;-78
2020/12/25 07:10:12;;;;;;;2.55;2.40;;;3.60;99.90;;;;;;4906713;28;91976;-79
2020/12/25 07:12:38;;;;;;;2.10;2.00;;;3.60;99.90;;;;;;4912477;28;92060;-80
2020/12/25 07:15:06;;;;;;;3.20;3.00;;;3.70;99.90;;;;;;4921252;28;91278;-81
2020/12/25 07:17:32;;;;;;;2.60;2.50;;;3.80;99.90;;;;;;4921536;28;92630;-82
2020/12/25 07:19:58;;;;;;;2.50;2.30;;;3.80;99.90;;;;;;4921246;28;92121;-80
2020/12/25 07:22:23;;;;;;;4.78;2.47;;;3.80;99.90;;;;;;4910906;28;92660;-80
2020/12/25 07:24:49;;;;;;;3.08;2.83;;;3.70;99.90;;;;;;4922811;28;92060;-78
2020/12/25 07:27:15;;;;;;;2.88;2.67;;;3.50;99.90;;;;;;4917318;28;92719;-77
2020/12/25 07:29:42;;;;;;;2.88;2.58;;;3.40;99.90;;;;;;4922050;28;92053;-78
2020/12/25 07:32:10;;;;;;;1.58;1.23;;;3.40;99.90;;;;;;4917502;28;91946;-79
2020/12/25 07:34:35;;;;;;;2.17;2.08;;;3.50;99.90;;;;;;4913412;28;92258;-80
2020/12/25 07:37:02;;;;;;;2.67;2.45;;;3.20;99.90;;;;;;4917149;28;92827;-79
2020/12/25 07:39:28;;;;;;;2.53;2.42;;;3.00;99.90;;;;;;4923254;28;91898;-84
2020/12/25 07:41:54;;;;;;;2.67;2.47;;;3.00;99.90;;;;;;4921635;28;91816;-82
2020/12/25 07:44:21;;;;;;;2.63;2.42;;;3.10;99.90;;;;;;4916514;28;91946;-82
2020/12/25 07:46:47;;;;;;;2.78;2.58;;;3.10;99.90;;;;;;4924882;28;92664;-82
2020/12/25 07:49:13;;;;;;;2.38;2.22;;;3.10;99.90;;;;;;4919836;28;92913;-81
2020/12/25 07:51:39;;;;;;;2.03;1.92;;;3.10;99.90;;;;;;4918805;28;91968;-79
2020/12/25 07:54:05;;;;;;;2.00;1.90;;;3.00;99.90;;;;;;4916033;28;91969;-80
2020/12/25 07:56:35;;;;;;;2.53;2.33;;;2.90;99.90;;;;;;4920906;28;91936;-78
2020/12/25 07:59:03;;;;;;;2.25;2.15;;;2.70;99.90;;;;;;4909023;28;92033;-79
2020/12/25 08:01:30;;;;;;;2.95;2.75;;;2.70;99.90;;;;;;4915087;28;92039;-79
2020/12/25 08:04:03;;;;;;;2.75;2.50;;;2.60;99.90;;;;;;4912802;28;91403;-81
2020/12/25 08:06:31;;;;;;;1.95;1.85;;;2.70;99.90;;;;;;4917449;28;93182;-78
2020/12/25 08:09:03;;;;;;;2.22;2.03;;;2.80;99.90;;;;;;4911941;28;92136;-80
2020/12/25 08:11:30;;;;;;;2.50;2.40;;;2.90;99.90;;;;;;4923552;28;92840;-80
2020/12/25 08:14:00;;;;;;;2.00;1.90;;;2.90;99.90;;;;;;4906382;28;91584;-81
2020/12/25 08:16:26;;;;;;;2.20;2.10;;;3.00;99.90;;;;;;4920686;28;94670;-80
2020/12/25 08:18:52;;;;;;;2.70;2.50;;;2.90;99.90;;;;;;4914461;28;91934;-80
2020/12/25 08:21:18;;;;;;;2.40;2.30;;;2.80;99.90;;;;;;4915304;28;92095;-79
2020/12/25 08:23:44;;;;;;;1.95;1.85;;;2.80;99.90;;;;;;4920983;28;92087;-77
2020/12/25 08:26:10;;;;;;;18.27;7.97;;;2.80;99.90;;;;;;4914219;28;91572;-80
2020/12/25 08:28:36;;;;;;;6.00;4.13;;;2.90;99.90;;;;;;4894815;28;94064;-79
2020/12/25 08:31:40;;;;;;;2.78;2.58;;;3.00;99.90;;;;;;4910773;28;92086;-79
2020/12/25 08:34:13;;;;;;;3.08;2.90;;;2.90;99.90;;;;;;4888515;28;92007;-80
2020/12/25 08:36:39;;;;;;;6.30;5.05;;;2.80;99.90;;;;;;4916092;28;92962;-78
2020/12/25 08:39:05;;;;;;;3.58;3.28;;;2.80;99.90;;;;;;4913915;28;93718;-77
2020/12/25 08:41:31;;;;;;;2.35;2.25;;;2.70;99.90;;;;;;4916191;28;92149;-79
2020/12/25 08:44:09;;;;;;;3.05;2.85;;;2.90;99.90;;;;;;4914055;28;91996;-79
2020/12/25 08:46:34;;;;;;;8.60;7.78;;;2.90;99.90;;;;;;4916118;28;93817;-79
2020/12/25 08:49:00;;;;;;;4.13;3.67;;;3.00;99.90;;;;;;4898255;28;95361;-80
2020/12/25 08:51:33;;;;;;;7.15;6.63;;;3.10;99.90;;;;;;4914466;28;91918;-78
2020/12/25 08:53:59;;;;;;;11.18;10.48;;;;;;;;;;4922133;28;90816;-80
2020/12/25 08:56:29;;;;;;;9.20;8.43;;;3.30;99.90;;;;;;4927205;28;92110;-79
2020/12/25 08:58:55;;;;;;;12.88;11.95;;;3.30;99.90;;;;;;4923379;28;91916;-79
2020/12/25 09:01:21;;;;;;;5.78;5.38;;;3.40;99.90;;;;;;4914927;28;92545;-79
2020/12/25 09:03:47;;;;;;;8.57;7.97;;;3.50;99.90;;;;;;4907964;28;91976;-78
2020/12/25 09:06:13;;;;;;;8.77;8.18;;;3.40;99.90;;;;;;4924374;28;91844;-79
2020/12/25 09:08:39;;;;;;;3.35;3.15;;;3.50;99.90;;;;;;4920050;28;91999;-79
2020/12/25 09:11:13;;;;;;;8.05;7.45;;;3.40;99.90;;;;;;4916524;28;92051;-80
2020/12/25 09:13:39;;;;;;;6.80;6.40;;;3.50;99.90;;;;;;4921166;28;92067;-80
2020/12/25 09:16:05;;;;;;;4.18;3.97;;;3.60;99.90;;;;;;4918999;28;93239;-79
2020/12/25 09:18:32;;;;;;;3.88;3.67;;;3.70;99.90;;;;;;4914501;28;91949;-79
2020/12/25 09:20:58;;;;;;;9.07;8.50;;;3.50;99.90;;;;;;4922473;28;92048;-81
2020/12/25 09:23:24;;;;;;;4.75;4.45;;;3.60;99.90;;;;;;4922395;28;91883;-78
2020/12/25 09:25:49;;;;;;;13.18;12.27;;;3.60;99.90;;;;;;4918703;28;94503;-78
2020/12/25 09:28:15;;;;;;;10.80;10.10;;;3.60;99.90;;;;;;4919257;28;92922;-79
2020/12/25 09:30:41;;;;;;;12.95;12.15;;;3.60;99.90;;;;;;4921662;28;92222;-78
2020/12/25 09:33:06;;;;;;;5.45;5.13;;;3.60;99.90;;;;;;4931439;28;91917;-78
2020/12/25 09:35:32;;;;;;;8.05;7.55;;;3.60;99.90;;;;;;4912422;28;92179;-79
2020/12/25 09:37:58;;;;;;;7.18;6.68;;;3.60;99.90;;;;;;4923630;28;92507;-78
2020/12/25 09:40:23;;;;;;;5.80;5.20;;;3.60;99.90;;;;;;4923915;28;92007;-78
2020/12/25 09:42:49;;;;;;;4.63;4.32;;;3.60;99.90;;;;;;4922496;28;93093;-80
2020/12/25 09:45:15;;;;;;;3.88;3.60;;;3.60;99.90;;;;;;4921638;28;92695;-79
2020/12/25 09:47:40;;;;;;;4.65;4.38;;;3.40;99.90;;;;;;4922096;28;92401;-81
2020/12/25 09:50:07;;;;;;;4.90;4.50;;;3.40;99.90;;;;;;4925606;28;92753;-80
2020/12/25 09:52:34;;;;;;;5.07;4.78;;;3.40;99.90;;;;;;4902471;28;92308;-80
2020/12/25 09:54:59;;;;;;;4.68;4.38;;;3.40;99.90;;;;;;4921867;28;91812;-82
2020/12/25 09:57:25;;;;;;;4.10;3.80;;;3.40;99.90;;;;;;4921626;28;92043;-83
2020/12/25 09:59:54;;;;;;;4.68;4.38;;;3.30;99.90;;;;;;4924408;28;91993;-79
2020/12/25 10:02:21;;;;;;;8.73;8.23;;;3.30;99.90;;;;;;4922513;28;92002;-80
2020/12/25 10:04:47;;;;;;;8.50;7.90;;;3.20;99.90;;;;;;4923921;28;92398;-81
2020/12/25 10:07:13;;;;;;;9.90;9.30;;;3.30;99.90;;;;;;4923920;28;91730;-79
2020/12/25 10:09:40;;;;;;;5.30;4.80;;;3.40;99.90;;;;;;4910113;28;91993;-80
2020/12/25 10:12:06;;;;;;;4.75;4.43;;;3.40;99.90;;;;;;4923889;28;92006;-79
2020/12/25 10:14:31;;;;;;;9.32;8.82;;;3.50;99.90;;;;;;4915324;28;93278;-79
2020/12/25 10:16:57;;;;;;;8.95;8.30;;;3.50;99.90;;;;;;4910318;28;93799;-77
2020/12/25 10:19:23;;;;;;;7.57;6.97;;;3.60;99.90;;;;;;4920312;28;91597;-78
2020/12/25 10:21:52;;;;;;;6.75;6.25;;;3.60;99.90;;;;;;4921712;28;92107;-78
2020/12/25 10:24:18;;;;;;;4.70;4.30;;;3.60;99.90;;;;;;4916350;28;92023;-79
2020/12/25 10:26:49;;;;;;;6.93;4.93;;;3.60;99.90;;;;;;4910854;28;92036;-77
2020/12/25 10:29:15;;;;;;;4.05;3.53;;;3.70;99.90;;;;;;4918939;28;92283;-78
2020/12/25 10:31:46;;;;;;;7.55;6.95;;;3.60;99.90;;;;;;4915897;28;91152;-80
2020/12/25 10:34:11;;;;;;;6.37;5.87;;;3.50;99.90;;;;;;4910021;28;92272;-77
2020/12/25 10:36:37;;;;;;;5.50;5.00;;;3.60;99.90;;;;;;4922524;28;91910;-77
2020/12/25 10:39:03;;;;;;;5.70;5.10;;;3.60;99.90;;;;;;4920310;28;93057;-81
2020/12/25 10:41:30;;;;;;;6.75;6.25;;;3.50;99.90;;;;;;4918925;28;92243;-77
2020/12/25 10:43:56;;;;;;;6.10;5.60;;;3.60;99.90;;;;;;4898971;28;95112;-78
2020/12/25 10:46:21;;;;;;;6.93;6.18;;;3.60;99.90;;;;;;4914472;28;92126;-80
2020/12/25 10:48:47;;;;;;;7.65;6.43;;;3.70;99.90;;;;;;4918009;28;91857;-80
2020/12/25 10:51:13;;;;;;;6.35;5.28;;;3.80;99.90;;;;;;4917893;28;92070;-78
2020/12/25 10:53:40;;;;;;;8.38;7.68;;;3.90;99.90;;;;;;4914049;28;92543;-78
2020/12/25 10:56:07;;;;;;;8.70;8.02;;;4.00;99.90;;;;;;4922389;28;92318;-78
2020/12/25 10:58:32;;;;;;;9.68;8.77;;;4.10;99.90;;;;;;4914393;28;91601;-78
2020/12/25 11:00:58;;;;;;;16.20;11.25;;;4.10;99.90;;;;;;4914240;28;92544;-77
2020/12/25 11:03:24;;;;;;;22.60;11.18;;;4.20;99.90;;;;;;4910407;28;93319;-78
2020/12/25 11:05:50;;;;;;;16.10;10.20;;;4.30;99.90;;;;;;4909076;28;92983;-78
2020/12/25 11:08:15;;;;;;;10.35;8.57;;;4.30;99.90;;;;;;4922532;28;91982;-78
2020/12/25 11:10:44;;;;;;;10.27;9.38;;;4.30;99.90;;;;;;4921791;28;92131;-78
2020/12/25 11:13:11;;;;;;;8.85;6.53;;;4.30;99.90;;;;;;4922145;28;92027;-78
2020/12/25 11:15:42;;;;;;;8.10;6.00;;;4.30;99.90;;;;;;4923660;28;91963;-78
2020/12/25 11:18:08;;;;;;;8.32;6.28;;;4.20;99.90;;;;;;4914783;28;91888;-78
2020/12/25 11:20:34;;;;;;;13.73;9.00;;;4.10;99.90;;;;;;4907134;28;91331;-78
2020/12/25 11:23:00;;;;;;;8.13;7.22;;;4.10;99.90;;;;;;4922170;28;93241;-78
2020/12/25 11:25:26;;;;;;;7.55;6.15;;;4.10;99.90;;;;;;4921545;28;92283;-78
2020/12/25 11:27:51;;;;;;;8.73;6.45;;;4.10;99.90;;;;;;4918384;28;92946;-78
2020/12/25 11:30:17;;;;;;;6.97;5.90;;;4.20;99.90;;;;;;4921820;28;91921;-77
2020/12/25 11:32:43;;;;;;;7.47;6.68;;;4.30;99.90;;;;;;4922458;28;92449;-79
2020/12/25 11:35:08;;;;;;;8.93;5.93;;;4.40;99.90;;;;;;4921184;28;92599;-78
2020/12/25 11:37:34;;;;;;;11.55;8.65;;;4.40;99.90;;;;;;4916706;28;91863;-78
2020/12/25 11:40:00;;;;;;;22.48;12.90;;;4.40;99.90;;;;;;4923386;28;91933;-78
2020/12/25 11:42:26;;;;;;;28.95;15.95;;;4.50;99.90;;;;;;4920856;28;92615;-78
2020/12/25 11:44:52;;;;;;;23.27;15.65;;;4.50;99.90;;;;;;4923214;28;91582;-78
2020/12/25 11:47:17;;;;;;;14.40;11.20;;;4.50;99.90;;;;;;4913229;28;92186;-79
2020/12/25 11:49:43;;;;;;;9.18;7.18;;;4.60;99.90;;;;;;4916264;28;91959;-77
2020/12/25 11:52:09;;;;;;;4.72;3.85;;;4.60;99.90;;;;;;4917705;28;92957;-78
2020/12/25 11:54:34;;;;;;;4.80;3.90;;;4.60;99.90;;;;;;4909240;28;93236;-79
2020/12/25 11:57:00;;;;;;;5.13;4.72;;;4.60;99.90;;;;;;4908784;28;92015;-77
2020/12/25 11:59:26;;;;;;;5.90;5.28;;;4.70;99.90;;;;;;4922973;28;92185;-78
2020/12/25 12:01:51;;;;;;;6.40;5.63;;;4.60;99.90;;;;;;4916585;28;91761;-79
2020/12/25 12:04:17;;;;;;;6.50;5.90;;;4.60;99.90;;;;;;4921732;28;92333;-78
2020/12/25 12:06:43;;;;;;;9.50;7.13;;;4.60;99.90;;;;;;4904942;28;92115;-78
2020/12/25 12:09:08;;;;;;;6.63;5.43;;;4.50;99.90;;;;;;4918565;28;91248;-78
2020/12/25 12:11:41;;;;;;;10.90;7.82;;;4.50;99.90;;;;;;4921183;28;92249;-77
2020/12/25 12:14:07;;;;;;;9.52;7.82;;;4.60;99.90;;;;;;4919445;28;92121;-78
2020/12/25 12:16:32;;;;;;;16.60;7.65;;;4.60;99.90;;;;;;4905143;28;92845;-78
2020/12/25 12:18:58;;;;;;;8.20;5.43;;;4.60;99.90;;;;;;4912091;28;92120;-78
2020/12/25 12:21:24;;;;;;;6.93;5.13;;;4.60;99.90;;;;;;4918889;28;92358;-78
2020/12/25 12:23:50;;;;;;;10.10;5.80;;;4.60;99.90;;;;;;4904801;28;92039;-78
2020/12/25 12:26:16;;;;;;;11.45;6.65;;;4.40;99.90;;;;;;4903241;28;92037;-76
2020/12/25 12:28:41;;;;;;;11.20;6.38;;;4.50;99.90;;;;;;4914103;28;91933;-78
2020/12/25 12:31:07;;;;;;;9.48;6.47;;;;;;;;;;4920087;28;93294;-78
2020/12/25 12:33:33;;;;;;;8.40;5.88;;;4.60;99.90;;;;;;4917991;28;92302;-78
2020/12/25 12:35:59;;;;;;;5.82;4.95;;;4.70;99.90;;;;;;4918437;28;92054;-78
2020/12/25 12:38:25;;;;;;;5.55;5.05;;;4.70;99.90;;;;;;4917777;28;92368;-78
2020/12/25 12:40:50;;;;;;;5.40;4.07;;;4.60;99.90;;;;;;4921624;28;93048;-77
2020/12/25 12:43:16;;;;;;;62.85;18.25;;;4.70;99.90;;;;;;4914079;28;92807;-78
2020/12/25 12:45:43;;;;;;;99.40;29.23;;;4.70;99.90;;;;;;4911342;28;92200;-77
2020/12/25 12:48:08;;;;;;;26.92;11.55;;;4.70;99.90;;;;;;4895330;28;92122;-76
2020/12/25 12:50:34;;;;;;;20.70;9.43;;;4.70;99.90;;;;;;4898189;28;92313;-77
2020/12/25 12:53:00;;;;;;;141.27;34.97;;;4.80;99.90;;;;;;4889029;28;92922;-78
2020/12/25 12:55:25;;;;;;;147.43;43.55;;;4.80;99.90;;;;;;4902133;28;91894;-77
2020/12/25 12:57:51;;;;;;;78.50;21.92;;;4.90;99.90;;;;;;4899131;28;93136;-78
2020/12/25 13:00:17;;;;;;;53.47;19.65;;;5.00;99.90;;;;;;4899722;28;92846;-77
2020/12/25 13:02:42;;;;;;;75.50;23.70;;;5.10;99.90;;;;;;4901621;28;92355;-76
2020/12/25 13:05:08;;;;;;;49.08;14.95;;;5.10;99.90;;;;;;4895424;28;93309;-76
2020/12/25 13:07:34;;;;;;;39.45;13.38;;;5.10;99.90;;;;;;4901993;28;91551;-77
2020/12/25 13:09:59;;;;;;;25.45;10.38;;;5.10;99.90;;;;;;4895343;28;91973;-77
2020/12/25 13:12:25;;;;;;;48.42;13.52;;;5.10;99.90;;;;;;4902325;28;91982;-79
2020/12/25 13:14:51;;;;;;;24.77;9.07;;;5.00;99.90;;;;;;4894196;28;92582;-76
2020/12/25 13:17:17;;;;;;;23.25;10.52;;;5.00;99.90;;;;;;4896089;28;92150;-77
2020/12/25 13:19:43;;;;;;;35.22;13.35;;;5.00;99.90;;;;;;4897448;28;92690;-78
2020/12/25 13:22:09;;;;;;;26.65;11.85;;;5.00;99.90;;;;;;4902534;28;91327;-76
2020/12/25 13:24:34;;;;;;;18.77;8.95;;;5.10;99.90;;;;;;4897188;28;91959;-78
2020/12/25 13:27:00;;;;;;;19.83;7.75;;;5.10;99.90;;;;;;4892869;28;92175;-78
2020/12/25 13:29:26;;;;;;;15.70;7.35;;;5.10;99.90;;;;;;4884142;28;95621;-77
2020/12/25 13:31:51;;;;;;;12.63;6.82;;;5.10;99.90;;;;;;4897192;28;92210;-78
2020/12/25 13:34:17;;;;;;;14.15;6.15;;;5.10;99.90;;;;;;4886705;28;91935;-77
2020/12/25 13:36:43;;;;;;;5.93;4.15;;;5.10;99.90;;;;;;4896707;28;92294;-76
2020/12/25 13:39:09;;;;;;;7.35;5.60;;;5.10;99.90;;;;;;4901328;28;92284;-77
2020/12/25 13:41:35;;;;;;;28.02;8.93;;;5.20;99.90;;;;;;4905771;28;92092;-78
2020/12/25 13:44:01;;;;;;;12.57;7.40;;;5.20;99.90;;;;;;4906225;28;92049;-76
2020/12/25 13:46:27;;;;;;;14.25;7.03;;;;;;;;;;4906637;28;91346;-77
2020/12/25 13:48:53;;;;;;;11.25;6.63;;;5.20;99.90;;;;;;4903325;28;92014;-78
2020/12/25 13:51:22;;;;;;;12.07;7.85;;;5.20;99.90;;;;;;4905596;28;92368;-78
2020/12/25 13:53:49;;;;;;;9.32;5.95;;;5.20;99.90;;;;;;4905212;28;92949;-79
2020/12/25 13:56:14;;;;;;;10.60;6.68;;;5.30;99.90;;;;;;4898274;28;92648;-79
2020/12/25 13:58:41;;;;;;;8.93;6.85;;;5.20;99.90;;;;;;4902004;28;92031;-77
2020/12/25 14:01:08;;;;;;;8.68;6.95;;;5.20;99.90;;;;;;4904898;28;92110;-77
2020/12/25 14:03:35;;;;;;;10.02;7.53;;;5.10;99.90;;;;;;4903438;28;91918;-79
2020/12/25 14:06:02;;;;;;;10.88;5.03;;;5.20;99.90;;;;;;4901128;28;91922;-77
2020/12/25 14:08:27;;;;;;;8.02;5.40;;;5.20;99.90;;;;;;4897602;28;92133;-78
2020/12/25 14:10:54;;;;;;;6.45;5.30;;;5.20;99.90;;;;;;4895962;28;91504;-76
2020/12/25 14:13:20;;;;;;;7.93;5.90;;;5.30;99.90;;;;;;4887862;28;92116;-78
2020/12/25 14:15:47;;;;;;;7.55;6.30;;;5.30;99.90;;;;;;4891852;28;92186;-78
2020/12/25 14:18:13;;;;;;;6.38;5.65;;;5.20;99.90;;;;;;4899962;28;93539;-78
2020/12/25 14:20:39;;;;;;;9.60;5.35;;;5.20;99.90;;;;;;4901953;28;92162;-77
2020/12/25 14:23:05;;;;;;;6.97;5.80;;;5.30;99.90;;;;;;4898986;28;92024;-78
2020/12/25 14:25:30;;;;;;;6.85;6.22;;;5.20;99.90;;;;;;4892454;28;92047;-78
2020/12/25 14:27:56;;;;;;;5.20;4.80;;;5.20;99.90;;;;;;4898259;28;92810;-78
2020/12/25 14:30:25;;;;;;;7.15;5.30;;;5.30;99.60;;;;;;4896057;28;91969;-77
2020/12/25 14:33:09;;;;;;;19.73;9.88;;;5.20;99.90;;;;;;4890562;28;92014;-77
2020/12/25 14:35:40;;;;;;;10.18;7.10;;;4.90;99.70;;;;;;4892118;28;91295;-78
2020/12/25 14:38:07;;;;;;;6.20;5.43;;;5.20;99.80;;;;;;4889254;28;93019;-78
2020/12/25 14:40:36;;;;;;;7.10;5.70;;;5.20;99.70;;;;;;4898524;28;92094;-77
2020/12/25 14:43:03;;;;;;;5.78;5.20;;;5.10;99.90;;;;;;4883634;28;92967;-77
2020/12/25 14:45:29;;;;;;;5.95;5.35;;;5.10;99.90;;;;;;4897657;28;92015;-77
2020/12/25 14:47:54;;;;;;;5.18;4.68;;;5.10;99.90;;;;;;4895755;28;92388;-77
2020/12/25 14:50:20;;;;;;;4.80;4.30;;;5.00;99.90;;;;;;4888806;28;91969;-78
2020/12/25 14:52:46;;;;;;;5.13;4.70;;;5.00;99.90;;;;;;4901008;28;91901;-78
2020/12/25 14:55:11;;;;;;;5.50;4.85;;;4.90;99.90;;;;;;4908265;28;91799;-77
2020/12/25 14:57:37;;;;;;;4.60;4.20;;;4.90;99.90;;;;;;4899026;28;92405;-77
2020/12/25 15:00:04;;;;;;;4.95;4.45;;;4.80;99.90;;;;;;4903308;28;92027;-76
2020/12/25 15:02:29;;;;;;;5.85;5.10;;;4.80;99.90;;;;;;4879223;28;92271;-78
2020/12/25 15:04:56;;;;;;;12.30;6.32;;;;;;;;;;4902775;28;92019;-78
2020/12/25 15:07:21;;;;;;;9.20;7.25;;;4.80;99.90;;;;;;4895984;28;93807;-76
2020/12/25 15:09:47;;;;;;;7.45;5.93;;;4.80;99.90;;;;;;4902659;28;92880;-78
2020/12/25 15:12:13;;;;;;;12.57;8.85;;;4.80;99.90;;;;;;4903121;28;92055;-78
2020/12/25 15:14:39;;;;;;;7.25;5.93;;;;;;;;;;4903751;28;91298;-78
2020/12/25 15:17:04;;;;;;;5.63;4.95;;;4.90;99.90;;;;;;4902168;28;92075;-78
2020/12/25 15:19:30;;;;;;;6.55;4.28;;;4.90;99.90;;;;;;4903126;28;92338;-78
2020/12/25 15:21:56;;;;;;;6.90;6.00;;;4.90;99.90;;;;;;4903697;28;91959;-77
2020/12/25 15:24:21;;;;;;;7.07;4.55;;;5.00;99.90;;;;;;4904761;28;91137;-76
2020/12/25 15:26:47;;;;;;;12.13;7.03;;;5.00;99.90;;;;;;4902024;28;92143;-78
2020/12/25 15:29:13;;;;;;;7.50;5.47;;;5.00;99.90;;;;;;4897359;28;92111;-76
2020/12/25 15:31:39;;;;;;;7.22;4.88;;;4.90;99.70;;;;;;4895308;28;92935;-77
2020/12/25 15:34:05;;;;;;;6.38;4.20;;;4.90;99.90;;;;;;4894159;28;91956;-76
2020/12/25 15:36:31;;;;;;;5.28;4.78;;;4.90;99.50;;;;;;4896149;28;92297;-78
2020/12/25 15:38:57;;;;;;;6.75;5.20;;;4.80;99.60;;;;;;4903362;28;92035;-77
2020/12/25 15:41:23;;;;;;;4.55;4.15;;;4.80;99.70;;;;;;4896612;28;91994;-77
2020/12/25 15:43:48;;;;;;;5.97;4.43;;;4.80;99.90;;;;;;4902783;28;92103;-78
2020/12/25 15:46:14;;;;;;;6.32;5.25;;;4.70;99.60;;;;;;4899740;28;91949;-76
2020/12/25 15:48:41;;;;;;;5.50;4.72;;;4.80;99.90;;;;;;4903240;28;91275;-77
2020/12/25 15:51:15;;;;;;;6.38;4.63;;;4.80;99.90;;;;;;4900135;28;92154;-76
2020/12/25 15:53:42;;;;;;;6.13;5.53;;;4.80;99.90;;;;;;4893245;28;92158;-79
2020/12/25 15:56:08;;;;;;;6.32;5.72;;;4.70;99.90;;;;;;4898672;28;94046;-78
2020/12/25 15:58:34;;;;;;;7.30;5.78;;;4.70;99.90;;;;;;4903157;28;92789;-77
2020/12/25 16:00:59;;;;;;;8.05;5.85;;;4.70;99.90;;;;;;4897904;28;91974;-78
2020/12/25 16:03:25;;;;;;;6.95;5.30;;;4.70;99.90;;;;;;4898117;28;91918;-78
2020/12/25 16:05:51;;;;;;;7.25;5.97;;;4.70;99.90;;;;;;4903229;28;91952;-77
2020/12/25 16:08:17;;;;;;;7.47;6.03;;;4.70;99.90;;;;;;4901617;28;92403;-78
2020/12/25 16:10:43;;;;;;;7.05;6.35;;;4.70;99.90;;;;;;4899884;28;92001;-77
2020/12/25 16:13:08;;;;;;;7.53;6.82;;;4.70;99.90;;;;;;4902245;28;91383;-77
2020/12/25 16:15:37;;;;;;;7.45;6.25;;;4.70;99.90;;;;;;4899743;28;92329;-77
2020/12/25 16:18:04;;;;;;;6.50;5.13;;;4.70;99.90;;;;;;4903449;28;92051;-77
2020/12/25 16:20:30;;;;;;;15.10;8.68;;;4.70;99.90;;;;;;4896312;28;92224;-78
2020/12/25 16:22:58;;;;;;;15.75;9.27;;;4.70;99.90;;;;;;4900890;28;92077;-78
2020/12/25 16:25:24;;;;;;;9.55;7.32;;;4.70;99.90;;;;;;4900014;28;91963;-78
2020/12/25 16:27:50;;;;;;;8.63;6.55;;;;;;;;;;4897984;28;92421;-78
2020/12/25 16:30:16;;;;;;;6.63;5.80;;;4.70;99.90;;;;;;4894896;28;92107;-78
2020/12/25 16:32:43;;;;;;;6.80;5.82;;;4.70;99.90;;;;;;4890286;28;91927;-77
2020/12/25 16:35:10;;;;;;;9.02;6.22;;;4.70;99.90;;;;;;4889576;28;92428;-78
2020/12/25 16:37:35;;;;;;;7.93;5.93;;;4.70;99.90;;;;;;4895627;28;91354;-78
2020/12/25 16:40:03;;;;;;;8.63;6.55;;;4.70;99.90;;;;;;4902663;28;92007;-77